createdAt,value
2016-09-18T00:00:55.577Z,0
2016-09-18T00:01:55.896Z,0
2016-09-18T00:02:55.576Z,0
2016-09-18T00:03:55.579Z,0
2016-09-18T00:04:55.590Z,0
2016-09-18T00:05:55.596Z,0
2016-09-18T00:06:55.594Z,0
2016-09-18T00:07:55.574Z,0
2016-09-18T00:08:55.594Z,0
2016-09-18T00:09:55.642Z,0
2016-09-18T00:10:55.594Z,0
2016-09-18T00:11:55.896Z,0
2016-09-18T00:12:55.579Z,0
2016-09-18T00:13:55.588Z,0
2016-09-18T00:14:55.581Z,0
2016-09-18T00:15:55.594Z,0
2016-09-18T00:16:55.605Z,0
2016-09-18T00:17:55.603Z,0
2016-09-18T00:18:55.603Z,0
2016-09-18T00:19:55.607Z,0
2016-09-18T00:20:55.597Z,0
2016-09-18T00:21:55.587Z,0
2016-09-18T00:22:55.608Z,0
2016-09-18T00:23:55.838Z,0
2016-09-18T00:24:55.608Z,0
2016-09-18T00:25:55.904Z,0
2016-09-18T00:26:55.599Z,0
2016-09-18T00:27:55.601Z,0
2016-09-18T00:28:55.584Z,0
2016-09-18T00:29:55.608Z,0
2016-09-18T00:30:55.605Z,0
2016-09-18T00:31:55.588Z,0
2016-09-18T00:32:55.604Z,0
2016-09-18T00:33:55.612Z,0
2016-09-18T00:34:55.608Z,0
2016-09-18T00:35:55.590Z,0
2016-09-18T00:36:55.612Z,0
2016-09-18T00:37:55.606Z,0
2016-09-18T00:38:55.615Z,0
2016-09-18T00:39:55.907Z,0
2016-09-18T00:40:55.607Z,0
2016-09-18T00:41:55.617Z,0
2016-09-18T00:42:55.594Z,0
2016-09-18T00:43:55.599Z,0
2016-09-18T00:44:55.597Z,0
2016-09-18T00:45:55.594Z,0
2016-09-18T00:46:55.607Z,0
2016-09-18T00:47:55.921Z,0
2016-09-18T00:48:55.628Z,0
2016-09-18T00:49:55.599Z,0
2016-09-18T00:50:55.602Z,0
2016-09-18T00:51:55.617Z,0
2016-09-18T00:52:55.624Z,0
2016-09-18T00:53:55.610Z,0
2016-09-18T00:54:55.608Z,0
2016-09-18T00:55:55.602Z,0
2016-09-18T00:56:55.605Z,0
2016-09-18T00:57:55.601Z,0
2016-09-18T00:58:55.599Z,0
2016-09-18T00:59:55.607Z,0
2016-09-18T01:00:55.609Z,0
2016-09-18T01:01:55.920Z,0
2016-09-18T01:02:55.627Z,0
2016-09-18T01:03:55.853Z,0
2016-09-18T01:04:55.607Z,0
2016-09-18T01:05:55.627Z,0
2016-09-18T01:06:55.920Z,0
2016-09-18T01:07:55.861Z,0
2016-09-18T01:08:55.629Z,0
2016-09-18T01:09:55.765Z,0
2016-09-18T01:10:55.610Z,0
2016-09-18T01:11:55.609Z,0
2016-09-18T01:12:55.609Z,0
2016-09-18T01:13:55.616Z,0
2016-09-18T01:14:55.629Z,0
2016-09-18T01:15:55.636Z,0
2016-09-18T01:16:55.624Z,0
2016-09-18T01:17:55.616Z,0
2016-09-18T01:18:55.644Z,0
2016-09-18T01:19:55.614Z,0
2016-09-18T01:20:55.612Z,0
2016-09-18T01:21:55.645Z,0
2016-09-18T01:22:55.867Z,0
2016-09-18T01:23:55.628Z,0
2016-09-18T01:24:55.637Z,0
2016-09-18T01:25:55.634Z,0
2016-09-18T01:26:55.630Z,0
2016-09-18T01:27:55.617Z,0
2016-09-18T01:28:55.624Z,0
2016-09-18T01:29:55.948Z,0
2016-09-18T01:30:55.647Z,0
2016-09-18T01:31:55.633Z,0
2016-09-18T01:32:55.639Z,0
2016-09-18T01:33:55.636Z,0
2016-09-18T01:34:55.937Z,0
2016-09-18T01:35:55.632Z,0
2016-09-18T01:36:55.657Z,0
2016-09-18T01:37:55.639Z,0
2016-09-18T01:38:55.639Z,0
2016-09-18T01:39:55.648Z,0
2016-09-18T01:40:55.629Z,0
2016-09-18T01:41:55.869Z,0
2016-09-18T01:42:55.657Z,0
2016-09-18T01:43:55.648Z,0
2016-09-18T01:44:55.642Z,0
2016-09-18T01:45:55.636Z,0
2016-09-18T01:46:55.642Z,0
2016-09-18T01:47:55.641Z,0
2016-09-18T01:48:55.872Z,0
2016-09-18T01:49:55.953Z,0
2016-09-18T01:50:55.637Z,0
2016-09-18T01:51:55.654Z,0
2016-09-18T01:52:55.971Z,0
2016-09-18T01:53:55.635Z,0
2016-09-18T01:54:55.889Z,0
2016-09-18T01:55:55.652Z,0
2016-09-18T01:56:55.652Z,0
2016-09-18T01:57:55.653Z,0
2016-09-18T01:58:55.656Z,0
2016-09-18T01:59:55.965Z,0
2016-09-18T02:00:55.893Z,0
2016-09-18T02:01:55.893Z,0
2016-09-18T02:02:55.954Z,0
2016-09-18T02:03:55.655Z,0
2016-09-18T02:04:55.656Z,0
2016-09-18T02:05:55.648Z,0
2016-09-18T02:06:55.657Z,0
2016-09-18T02:07:55.896Z,0
2016-09-18T02:08:55.659Z,0
2016-09-18T02:09:55.700Z,0
2016-09-18T02:10:55.661Z,0
2016-09-18T02:11:55.647Z,0
2016-09-18T02:12:55.664Z,0
2016-09-18T02:13:55.961Z,0
2016-09-18T02:14:55.953Z,0
2016-09-18T02:15:55.660Z,0
2016-09-18T02:16:55.656Z,0
2016-09-18T02:17:55.664Z,0
2016-09-18T02:18:55.658Z,0
2016-09-18T02:19:55.658Z,0
2016-09-18T02:20:55.659Z,0
2016-09-18T02:21:55.657Z,0
2016-09-18T02:22:55.661Z,0
2016-09-18T02:23:55.660Z,0
2016-09-18T02:24:55.660Z,0
2016-09-18T02:25:55.661Z,0
2016-09-18T02:26:55.665Z,0
2016-09-18T02:27:55.665Z,0
2016-09-18T02:28:55.662Z,0
2016-09-18T02:29:55.661Z,0
2016-09-18T02:30:55.670Z,0
2016-09-18T02:31:55.903Z,0
2016-09-18T02:32:55.673Z,0
2016-09-18T02:33:55.662Z,0
2016-09-18T02:34:55.668Z,0
2016-09-18T02:35:55.687Z,0
2016-09-18T02:36:55.974Z,0
2016-09-18T02:37:55.665Z,0
2016-09-18T02:38:55.992Z,0
2016-09-18T02:39:55.668Z,0
2016-09-18T02:40:55.677Z,0
2016-09-18T02:41:55.989Z,0
2016-09-18T02:42:55.677Z,0
2016-09-18T02:43:55.672Z,0
2016-09-18T02:44:55.688Z,0
2016-09-18T02:45:55.738Z,0
2016-09-18T02:46:55.678Z,0
2016-09-18T02:47:55.685Z,0
2016-09-18T02:48:55.682Z,0
2016-09-18T02:49:55.689Z,0
2016-09-18T02:50:55.921Z,0
2016-09-18T02:51:55.997Z,0
2016-09-18T02:52:55.925Z,0
2016-09-18T02:53:55.680Z,0
2016-09-18T02:54:55.921Z,0
2016-09-18T02:55:55.929Z,0
2016-09-18T02:56:55.677Z,0
2016-09-18T02:57:55.921Z,0
2016-09-18T02:58:55.680Z,0
2016-09-18T02:59:55.693Z,0
2016-09-18T03:00:55.686Z,0
2016-09-18T03:01:55.701Z,0
2016-09-18T03:02:55.696Z,0
2016-09-18T03:03:55.688Z,0
2016-09-18T03:04:55.692Z,0
2016-09-18T03:05:55.690Z,0
2016-09-18T03:06:55.695Z,0
2016-09-18T03:07:55.693Z,0
2016-09-18T03:08:55.696Z,0
2016-09-18T03:09:56.056Z,0
2016-09-18T03:10:55.684Z,0
2016-09-18T03:11:55.689Z,0
2016-09-18T03:12:55.700Z,0
2016-09-18T03:13:55.690Z,0
2016-09-18T03:14:55.703Z,0
2016-09-18T03:15:55.706Z,0
2016-09-18T03:16:55.706Z,0
2016-09-18T03:17:55.694Z,0
2016-09-18T03:18:55.724Z,0
2016-09-18T03:19:55.725Z,0
2016-09-18T03:20:55.699Z,0
2016-09-18T03:21:55.700Z,0
2016-09-18T03:22:55.701Z,0
2016-09-18T03:23:56.016Z,0
2016-09-18T03:24:56.030Z,0
2016-09-18T03:25:55.748Z,0
2016-09-18T03:26:55.701Z,0
2016-09-18T03:27:55.712Z,0
2016-09-18T03:28:55.708Z,0
2016-09-18T03:29:56.016Z,0
2016-09-18T03:30:55.711Z,0
2016-09-18T03:31:55.709Z,0
2016-09-18T03:32:55.721Z,0
2016-09-18T03:33:55.711Z,0
2016-09-18T03:34:55.710Z,0
2016-09-18T03:35:56.021Z,0
2016-09-18T03:36:56.052Z,0
2016-09-18T03:37:55.713Z,0
2016-09-18T03:38:55.730Z,0
2016-09-18T03:39:55.735Z,0
2016-09-18T03:40:55.713Z,0
2016-09-18T03:41:55.713Z,0
2016-09-18T03:42:55.734Z,0
2016-09-18T03:43:55.717Z,0
2016-09-18T03:44:55.717Z,0
2016-09-18T03:45:55.711Z,0
2016-09-18T03:46:55.717Z,0
2016-09-18T03:47:55.717Z,0
2016-09-18T03:48:55.721Z,0
2016-09-18T03:49:55.727Z,0
2016-09-18T03:50:55.719Z,0
2016-09-18T03:51:55.720Z,0
2016-09-18T03:52:55.731Z,0
2016-09-18T03:53:55.723Z,0
2016-09-18T03:54:55.719Z,0
2016-09-18T03:55:55.722Z,0
2016-09-18T03:56:55.726Z,0
2016-09-18T03:57:55.718Z,0
2016-09-18T03:58:55.727Z,0
2016-09-18T03:59:55.726Z,0
2016-09-18T04:00:55.725Z,0
2016-09-18T04:01:55.741Z,0
2016-09-18T04:02:55.746Z,0
2016-09-18T04:03:55.728Z,0
2016-09-18T04:04:56.290Z,0
2016-09-18T04:05:55.726Z,0
2016-09-18T04:06:55.728Z,0
2016-09-18T04:07:55.733Z,0
2016-09-18T04:08:55.756Z,0
2016-09-18T04:09:55.880Z,0
2016-09-18T04:10:55.747Z,0
2016-09-18T04:11:55.734Z,0
2016-09-18T04:12:55.753Z,0
2016-09-18T04:13:55.756Z,0
2016-09-18T04:14:55.762Z,0
2016-09-18T04:15:55.747Z,0
2016-09-18T04:16:55.739Z,0
2016-09-18T04:17:55.740Z,0
2016-09-18T04:18:55.750Z,0
2016-09-18T04:19:55.738Z,0
2016-09-18T04:20:55.755Z,0
2016-09-18T04:21:56.000Z,0
2016-09-18T04:22:56.066Z,0
2016-09-18T04:23:55.756Z,0
2016-09-18T04:24:55.757Z,0
2016-09-18T04:25:55.763Z,0
2016-09-18T04:26:55.752Z,0
2016-09-18T04:27:55.771Z,0
2016-09-18T04:28:55.753Z,0
2016-09-18T04:29:55.757Z,0
2016-09-18T04:30:55.756Z,0
2016-09-18T04:31:55.772Z,0
2016-09-18T04:32:56.074Z,0
2016-09-18T04:33:55.760Z,0
2016-09-18T04:34:55.765Z,0
2016-09-18T04:35:55.760Z,0
2016-09-18T04:36:55.763Z,0
2016-09-18T04:37:55.768Z,0
2016-09-18T04:38:55.774Z,0
2016-09-18T04:39:55.769Z,0
2016-09-18T04:40:55.776Z,0
2016-09-18T04:41:55.791Z,0
2016-09-18T04:42:55.759Z,0
2016-09-18T04:43:55.779Z,0
2016-09-18T04:44:56.019Z,0
2016-09-18T04:45:55.760Z,0
2016-09-18T04:46:55.785Z,0
2016-09-18T04:47:55.773Z,0
2016-09-18T04:48:55.785Z,0
2016-09-18T04:49:55.782Z,0
2016-09-18T04:50:55.775Z,0
2016-09-18T04:51:55.783Z,0
2016-09-18T04:52:56.102Z,0
2016-09-18T04:53:56.103Z,0
2016-09-18T04:54:55.777Z,0
2016-09-18T04:55:55.782Z,0
2016-09-18T04:56:55.793Z,0
2016-09-18T04:57:55.789Z,0
2016-09-18T04:58:55.785Z,0
2016-09-18T04:59:55.788Z,0
2016-09-18T05:00:55.788Z,0
2016-09-18T05:01:55.798Z,0
2016-09-18T05:02:55.786Z,0
2016-09-18T05:03:56.022Z,0
2016-09-18T05:04:55.788Z,0
2016-09-18T05:05:55.793Z,0
2016-09-18T05:06:55.789Z,0
2016-09-18T05:07:56.112Z,0
2016-09-18T05:08:55.784Z,0
2016-09-18T05:09:55.937Z,0
2016-09-18T05:10:55.808Z,0
2016-09-18T05:11:55.807Z,0
2016-09-18T05:12:55.785Z,0
2016-09-18T05:13:55.789Z,0
2016-09-18T05:14:55.814Z,0
2016-09-18T05:15:55.792Z,0
2016-09-18T05:16:55.794Z,0
2016-09-18T05:17:56.458Z,0
2016-09-18T05:18:56.115Z,0
2016-09-18T05:19:55.807Z,0
2016-09-18T05:20:55.792Z,0
2016-09-18T05:21:55.800Z,0
2016-09-18T05:22:56.115Z,0
2016-09-18T05:23:55.798Z,0
2016-09-18T05:24:55.789Z,0
2016-09-18T05:25:55.820Z,0
2016-09-18T05:26:55.806Z,0
2016-09-18T05:27:55.811Z,0
2016-09-18T05:28:55.806Z,0
2016-09-18T05:29:55.815Z,0
2016-09-18T05:30:55.802Z,0
2016-09-18T05:31:55.815Z,0
2016-09-18T05:32:55.811Z,0
2016-09-18T05:33:55.821Z,0
2016-09-18T05:34:55.816Z,5
2016-09-18T05:35:55.816Z,5
2016-09-18T05:36:55.801Z,5
2016-09-18T05:37:55.807Z,5
2016-09-18T05:38:55.815Z,5
2016-09-18T05:39:55.820Z,5
2016-09-18T05:40:55.824Z,5
2016-09-18T05:41:55.817Z,0
2016-09-18T05:42:55.820Z,0
2016-09-18T05:43:55.821Z,5
2016-09-18T05:44:55.824Z,5
2016-09-18T05:45:55.828Z,5
2016-09-18T05:46:55.849Z,5
2016-09-18T05:47:55.828Z,5
2016-09-18T05:48:55.830Z,5
2016-09-18T05:49:56.140Z,5
2016-09-18T05:50:55.825Z,5
2016-09-18T05:51:55.840Z,5
2016-09-18T05:52:55.838Z,5
2016-09-18T05:53:55.824Z,5
2016-09-18T05:54:55.830Z,5
2016-09-18T05:55:55.827Z,5
2016-09-18T05:56:55.833Z,5
2016-09-18T05:57:55.828Z,5
2016-09-18T05:58:56.138Z,5
2016-09-18T05:59:56.168Z,5
2016-09-18T06:00:55.838Z,5
2016-09-18T06:01:55.836Z,10
2016-09-18T06:02:55.826Z,10
2016-09-18T06:03:55.832Z,10
2016-09-18T06:04:55.829Z,10
2016-09-18T06:05:55.833Z,10
2016-09-18T06:06:55.831Z,10
2016-09-18T06:07:55.835Z,10
2016-09-18T06:08:55.833Z,10
2016-09-18T06:09:55.979Z,10
2016-09-18T06:10:56.092Z,10
2016-09-18T06:11:55.841Z,10
2016-09-18T06:12:55.839Z,10
2016-09-18T06:13:55.838Z,10
2016-09-18T06:14:55.841Z,10
2016-09-18T06:15:55.841Z,10
2016-09-18T06:16:55.853Z,10
2016-09-18T06:17:55.842Z,10
2016-09-18T06:18:56.163Z,10
2016-09-18T06:19:55.844Z,10
2016-09-18T06:20:56.092Z,10
2016-09-18T06:21:55.843Z,10
2016-09-18T06:22:56.151Z,10
2016-09-18T06:23:56.166Z,10
2016-09-18T06:24:55.848Z,10
2016-09-18T06:25:55.847Z,10
2016-09-18T06:26:55.851Z,15
2016-09-18T06:27:56.097Z,15
2016-09-18T06:28:55.859Z,15
2016-09-18T06:29:55.865Z,15
2016-09-18T06:30:55.851Z,10
2016-09-18T06:31:55.870Z,10
2016-09-18T06:32:55.874Z,10
2016-09-18T06:33:56.098Z,10
2016-09-18T06:34:55.870Z,10
2016-09-18T06:35:55.851Z,10
2016-09-18T06:36:55.872Z,10
2016-09-18T06:37:55.870Z,10
2016-09-18T06:38:55.877Z,10
2016-09-18T06:39:55.877Z,15
2016-09-18T06:40:55.858Z,15
2016-09-18T06:41:56.185Z,15
2016-09-18T06:42:55.858Z,15
2016-09-18T06:43:56.195Z,20
2016-09-18T06:44:55.884Z,20
2016-09-18T06:45:56.122Z,20
2016-09-18T06:46:55.880Z,20
2016-09-18T06:47:55.889Z,25
2016-09-18T06:48:55.890Z,25
2016-09-18T06:49:55.882Z,30
2016-09-18T06:50:55.879Z,30
2016-09-18T06:51:55.882Z,30
2016-09-18T06:52:55.882Z,30
2016-09-18T06:53:55.880Z,25
2016-09-18T06:54:55.889Z,25
2016-09-18T06:55:56.228Z,30
2016-09-18T06:56:55.886Z,25
2016-09-18T06:57:55.885Z,25
2016-09-18T06:58:55.887Z,25
2016-09-18T06:59:55.892Z,25
2016-09-18T07:00:55.892Z,25
2016-09-18T07:01:55.883Z,25
2016-09-18T07:02:55.888Z,25
2016-09-18T07:03:56.221Z,25
2016-09-18T07:04:55.917Z,25
2016-09-18T07:05:55.913Z,30
2016-09-18T07:06:55.892Z,30
2016-09-18T07:07:55.893Z,30
2016-09-18T07:08:55.897Z,35
2016-09-18T07:09:56.101Z,35
2016-09-18T07:10:55.893Z,35
2016-09-18T07:11:55.899Z,35
2016-09-18T07:12:56.229Z,30
2016-09-18T07:13:55.906Z,30
2016-09-18T07:14:55.903Z,25
2016-09-18T07:15:55.909Z,25
2016-09-18T07:16:55.900Z,25
2016-09-18T07:17:56.226Z,25
2016-09-18T07:18:55.911Z,25
2016-09-18T07:19:56.233Z,25
2016-09-18T07:20:55.920Z,25
2016-09-18T07:21:55.918Z,25
2016-09-18T07:22:55.924Z,30
2016-09-18T07:23:55.911Z,30
2016-09-18T07:24:55.924Z,30
2016-09-18T07:25:55.952Z,30
2016-09-18T07:26:55.927Z,30
2016-09-18T07:27:55.912Z,35
2016-09-18T07:28:55.923Z,35
2016-09-18T07:29:56.479Z,30
2016-09-18T07:30:55.924Z,30
2016-09-18T07:31:55.926Z,30
2016-09-18T07:32:55.925Z,30
2016-09-18T07:33:55.933Z,30
2016-09-18T07:34:55.929Z,30
2016-09-18T07:35:55.934Z,30
2016-09-18T07:36:55.942Z,25
2016-09-18T07:37:55.936Z,25
2016-09-18T07:38:55.956Z,25
2016-09-18T07:39:55.945Z,30
2016-09-18T07:40:55.939Z,35
2016-09-18T07:41:55.935Z,35
2016-09-18T07:42:56.185Z,40
2016-09-18T07:43:55.938Z,40
2016-09-18T07:44:55.962Z,40
2016-09-18T07:45:55.939Z,40
2016-09-18T07:46:55.938Z,45
2016-09-18T07:47:55.943Z,40
2016-09-18T07:48:55.941Z,40
2016-09-18T07:49:55.962Z,40
2016-09-18T07:50:55.945Z,40
2016-09-18T07:51:55.952Z,45
2016-09-18T07:52:55.945Z,50
2016-09-18T07:53:55.942Z,45
2016-09-18T07:54:56.194Z,50
2016-09-18T07:55:55.969Z,45
2016-09-18T07:56:55.953Z,50
2016-09-18T07:57:55.953Z,50
2016-09-18T07:58:55.966Z,55
2016-09-18T07:59:55.966Z,65
2016-09-18T08:00:56.590Z,70
2016-09-18T08:01:56.196Z,80
2016-09-18T08:02:55.967Z,85
2016-09-18T08:03:55.979Z,85
2016-09-18T08:04:55.958Z,85
2016-09-18T08:05:55.967Z,90
2016-09-18T08:06:55.970Z,110
2016-09-18T08:07:55.959Z,120
2016-09-18T08:08:56.278Z,120
2016-09-18T08:09:56.057Z,110
2016-09-18T08:10:55.956Z,105
2016-09-18T08:11:56.215Z,100
2016-09-18T08:12:55.956Z,95
2016-09-18T08:13:55.979Z,90
2016-09-18T08:14:55.974Z,85
2016-09-18T08:15:55.983Z,75
2016-09-18T08:16:55.986Z,70
2016-09-18T08:17:55.975Z,70
2016-09-18T08:18:55.973Z,70
2016-09-18T08:19:55.976Z,75
2016-09-18T08:20:55.986Z,80
2016-09-18T08:21:55.973Z,80
2016-09-18T08:22:55.979Z,85
2016-09-18T08:23:56.295Z,85
2016-09-18T08:24:55.992Z,85
2016-09-18T08:25:55.982Z,85
2016-09-18T08:26:55.981Z,80
2016-09-18T08:27:55.989Z,80
2016-09-18T08:28:55.988Z,75
2016-09-18T08:29:55.986Z,65
2016-09-18T08:30:55.989Z,70
2016-09-18T08:31:55.991Z,75
2016-09-18T08:32:55.998Z,75
2016-09-18T08:33:55.993Z,80
2016-09-18T08:34:55.987Z,80
2016-09-18T08:35:55.991Z,80
2016-09-18T08:36:55.993Z,75
2016-09-18T08:37:56.009Z,65
2016-09-18T08:38:56.001Z,70
2016-09-18T08:39:56.016Z,70
2016-09-18T08:40:56.316Z,80
2016-09-18T08:41:56.001Z,85
2016-09-18T08:42:56.004Z,80
2016-09-18T08:43:56.323Z,70
2016-09-18T08:44:56.004Z,60
2016-09-18T08:45:56.010Z,60
2016-09-18T08:46:56.335Z,60
2016-09-18T08:47:56.012Z,65
2016-09-18T08:48:56.332Z,60
2016-09-18T08:49:56.017Z,55
2016-09-18T08:50:56.061Z,55
2016-09-18T08:51:56.307Z,55
2016-09-18T08:52:56.021Z,50
2016-09-18T08:53:56.049Z,50
2016-09-18T08:54:56.032Z,45
2016-09-18T08:55:56.046Z,40
2016-09-18T08:56:56.283Z,35
2016-09-18T08:57:56.029Z,40
2016-09-18T08:58:56.026Z,40
2016-09-18T08:59:56.034Z,35
2016-09-18T09:00:56.038Z,35
2016-09-18T09:01:56.044Z,30
2016-09-18T09:02:56.043Z,35
2016-09-18T09:03:56.031Z,40
2016-09-18T09:04:56.036Z,35
2016-09-18T09:05:56.031Z,35
2016-09-18T09:06:56.034Z,35
2016-09-18T09:07:56.034Z,35
2016-09-18T09:08:56.048Z,35
2016-09-18T09:09:56.195Z,35
2016-09-18T09:10:56.035Z,40
2016-09-18T09:11:56.043Z,40
2016-09-18T09:12:56.039Z,40
2016-09-18T09:13:56.042Z,45
2016-09-18T09:14:56.042Z,45
2016-09-18T09:15:56.044Z,50
2016-09-18T09:16:56.039Z,50
2016-09-18T09:17:56.046Z,55
2016-09-18T09:18:56.045Z,55
2016-09-18T09:19:56.298Z,65
2016-09-18T09:20:56.052Z,70
2016-09-18T09:21:56.051Z,75
2016-09-18T09:22:56.050Z,80
2016-09-18T09:23:56.074Z,85
2016-09-18T09:24:56.055Z,85
2016-09-18T09:25:56.057Z,75
2016-09-18T09:26:56.056Z,65
2016-09-18T09:27:56.055Z,60
2016-09-18T09:28:56.061Z,60
2016-09-18T09:29:56.064Z,55
2016-09-18T09:30:56.060Z,60
2016-09-18T09:31:56.064Z,65
2016-09-18T09:32:56.058Z,65
2016-09-18T09:33:56.389Z,65
2016-09-18T09:34:56.065Z,65
2016-09-18T09:35:56.076Z,70
2016-09-18T09:36:56.070Z,70
2016-09-18T09:37:56.083Z,75
2016-09-18T09:38:56.090Z,80
2016-09-18T09:39:56.388Z,80
2016-09-18T09:40:56.085Z,90
2016-09-18T09:41:56.327Z,85
2016-09-18T09:42:56.085Z,90
2016-09-18T09:43:56.081Z,95
2016-09-18T09:44:56.101Z,100
2016-09-18T09:45:56.086Z,100
2016-09-18T09:46:56.081Z,100
2016-09-18T09:47:56.084Z,105
2016-09-18T09:48:56.402Z,120
2016-09-18T09:49:56.406Z,120
2016-09-18T09:50:56.104Z,120
2016-09-18T09:51:56.097Z,120
2016-09-18T09:52:56.100Z,125
2016-09-18T09:53:56.098Z,125
2016-09-18T09:54:56.103Z,125
2016-09-18T09:55:56.099Z,120
2016-09-18T09:56:56.097Z,115
2016-09-18T09:57:56.097Z,105
2016-09-18T09:58:56.117Z,100
2016-09-18T09:59:56.123Z,100
2016-09-18T10:00:56.105Z,100
2016-09-18T10:01:56.417Z,105
2016-09-18T10:02:56.109Z,110
2016-09-18T10:03:56.107Z,110
2016-09-18T10:04:56.351Z,110
2016-09-18T10:05:56.112Z,110
2016-09-18T10:06:56.112Z,110
2016-09-18T10:07:56.109Z,110
2016-09-18T10:08:56.128Z,110
2016-09-18T10:09:56.168Z,110
2016-09-18T10:10:56.117Z,105
2016-09-18T10:11:56.118Z,100
2016-09-18T10:12:56.125Z,100
2016-09-18T10:13:56.116Z,110
2016-09-18T10:14:56.165Z,110
2016-09-18T10:15:56.135Z,105
2016-09-18T10:16:56.129Z,105
2016-09-18T10:17:56.132Z,105
2016-09-18T10:18:56.130Z,100
2016-09-18T10:19:56.135Z,100
2016-09-18T10:20:56.138Z,100
2016-09-18T10:21:56.136Z,95
2016-09-18T10:22:56.449Z,90
2016-09-18T10:23:56.140Z,80
2016-09-18T10:24:56.138Z,75
2016-09-18T10:25:56.151Z,70
2016-09-18T10:26:56.143Z,70
2016-09-18T10:27:56.392Z,75
2016-09-18T10:28:56.149Z,75
2016-09-18T10:29:56.147Z,75
2016-09-18T10:30:56.163Z,80
2016-09-18T10:31:56.149Z,95
2016-09-18T10:32:56.150Z,105
2016-09-18T10:33:56.170Z,110
2016-09-18T10:34:56.162Z,120
2016-09-18T10:35:56.165Z,125
2016-09-18T10:36:56.164Z,130
2016-09-18T10:37:56.157Z,125
2016-09-18T10:38:56.166Z,120
2016-09-18T10:39:56.409Z,115
2016-09-18T10:40:56.166Z,100
2016-09-18T10:41:56.413Z,85
2016-09-18T10:42:56.165Z,75
2016-09-18T10:43:56.167Z,75
2016-09-18T10:44:56.170Z,70
2016-09-18T10:45:56.427Z,70
2016-09-18T10:46:56.172Z,75
2016-09-18T10:47:56.184Z,65
2016-09-18T10:48:56.175Z,65
2016-09-18T10:49:56.186Z,65
2016-09-18T10:50:56.186Z,65
2016-09-18T10:51:56.195Z,65
2016-09-18T10:52:56.188Z,65
2016-09-18T10:53:56.707Z,65
2016-09-18T10:54:56.196Z,65
2016-09-18T10:55:56.213Z,65
2016-09-18T10:56:56.194Z,70
2016-09-18T10:57:56.227Z,70
2016-09-18T10:58:56.518Z,70
2016-09-18T10:59:56.209Z,70
2016-09-18T11:00:56.216Z,75
2016-09-18T11:01:56.198Z,80
2016-09-18T11:02:56.227Z,95
2016-09-18T11:03:56.205Z,105
2016-09-18T11:04:56.201Z,110
2016-09-18T11:05:56.213Z,115
2016-09-18T11:06:56.462Z,120
2016-09-18T11:07:56.217Z,120
2016-09-18T11:08:56.216Z,110
2016-09-18T11:09:56.368Z,105
2016-09-18T11:10:56.222Z,105
2016-09-18T11:11:56.230Z,110
2016-09-18T11:12:56.223Z,105
2016-09-18T11:13:56.222Z,100
2016-09-18T11:14:56.471Z,100
2016-09-18T11:15:56.225Z,100
2016-09-18T11:16:56.223Z,100
2016-09-18T11:17:56.540Z,95
2016-09-18T11:18:56.234Z,100
2016-09-18T11:19:56.221Z,105
2016-09-18T11:20:56.223Z,115
2016-09-18T11:21:56.223Z,125
2016-09-18T11:22:56.233Z,140
2016-09-18T11:23:56.236Z,140
2016-09-18T11:24:56.237Z,145
2016-09-18T11:25:56.241Z,145
2016-09-18T11:26:56.238Z,145
2016-09-18T11:27:56.270Z,140
2016-09-18T11:28:56.243Z,130
2016-09-18T11:29:56.239Z,120
2016-09-18T11:30:56.240Z,115
2016-09-18T11:31:56.241Z,115
2016-09-18T11:32:56.245Z,115
2016-09-18T11:33:56.284Z,115
2016-09-18T11:34:56.276Z,120
2016-09-18T11:35:56.281Z,115
2016-09-18T11:36:56.278Z,115
2016-09-18T11:37:56.253Z,115
2016-09-18T11:38:56.284Z,120
2016-09-18T11:39:56.520Z,130
2016-09-18T11:40:56.573Z,140
2016-09-18T11:41:56.282Z,140
2016-09-18T11:42:56.280Z,140
2016-09-18T11:43:56.264Z,145
2016-09-18T11:44:56.277Z,155
2016-09-18T11:45:56.264Z,160
2016-09-18T11:46:56.587Z,160
2016-09-18T11:47:56.287Z,155
2016-09-18T11:48:56.266Z,145
2016-09-18T11:49:56.279Z,145
2016-09-18T11:50:56.282Z,140
2016-09-18T11:51:56.281Z,130
2016-09-18T11:52:56.589Z,130
2016-09-18T11:53:56.596Z,130
2016-09-18T11:54:56.312Z,120
2016-09-18T11:55:56.286Z,115
2016-09-18T11:56:56.536Z,110
2016-09-18T11:57:56.298Z,105
2016-09-18T11:58:56.305Z,110
2016-09-18T11:59:56.619Z,110
2016-09-18T12:00:56.301Z,110
2016-09-18T12:01:56.296Z,115
2016-09-18T12:02:56.313Z,115
2016-09-18T12:03:56.299Z,110
2016-09-18T12:04:56.314Z,110
2016-09-18T12:05:56.314Z,100
2016-09-18T12:06:56.305Z,90
2016-09-18T12:07:56.314Z,85
2016-09-18T12:08:56.311Z,80
2016-09-18T12:09:56.360Z,75
2016-09-18T12:10:56.315Z,70
2016-09-18T12:11:56.323Z,60
2016-09-18T12:12:56.316Z,55
2016-09-18T12:13:56.335Z,55
2016-09-18T12:14:56.641Z,50
2016-09-18T12:15:56.317Z,55
2016-09-18T12:16:56.353Z,55
2016-09-18T12:17:56.365Z,55
2016-09-18T12:18:56.360Z,60
2016-09-18T12:19:56.321Z,65
2016-09-18T12:20:56.337Z,65
2016-09-18T12:21:56.336Z,65
2016-09-18T12:22:56.339Z,70
2016-09-18T12:23:56.665Z,70
2016-09-18T12:24:56.339Z,75
2016-09-18T12:25:56.668Z,80
2016-09-18T12:26:56.340Z,85
2016-09-18T12:27:56.368Z,95
2016-09-18T12:28:56.357Z,100
2016-09-18T12:29:56.357Z,115
2016-09-18T12:30:56.382Z,120
2016-09-18T12:31:56.370Z,125
2016-09-18T12:32:56.345Z,125
2016-09-18T12:33:56.662Z,125
2016-09-18T12:34:56.341Z,125
2016-09-18T12:35:56.394Z,120
2016-09-18T12:36:56.685Z,120
2016-09-18T12:37:56.382Z,120
2016-09-18T12:38:56.362Z,125
2016-09-18T12:39:56.361Z,125
2016-09-18T12:40:56.372Z,125
2016-09-18T12:41:56.373Z,120
2016-09-18T12:42:56.363Z,120
2016-09-18T12:43:56.373Z,120
2016-09-18T12:44:56.385Z,120
2016-09-18T12:45:56.376Z,125
2016-09-18T12:46:56.381Z,125
2016-09-18T12:47:56.372Z,130
2016-09-18T12:48:56.378Z,130
2016-09-18T12:49:56.378Z,125
2016-09-18T12:50:56.384Z,125
2016-09-18T12:51:56.440Z,120
2016-09-18T12:52:56.439Z,115
2016-09-18T12:53:56.682Z,105
2016-09-18T12:54:56.692Z,105
2016-09-18T12:55:56.716Z,115
2016-09-18T12:56:56.718Z,125
2016-09-18T12:57:56.379Z,130
2016-09-18T12:58:56.580Z,135
2016-09-18T12:59:56.406Z,135
2016-09-18T13:00:56.386Z,125
2016-09-18T13:01:56.404Z,120
2016-09-18T13:02:56.394Z,115
2016-09-18T13:03:56.409Z,115
2016-09-18T13:04:56.397Z,105
2016-09-18T13:05:56.410Z,105
2016-09-18T13:06:56.408Z,110
2016-09-18T13:07:56.396Z,110
2016-09-18T13:08:56.430Z,105
2016-09-18T13:09:56.581Z,115
2016-09-18T13:10:56.423Z,110
2016-09-18T13:11:56.422Z,105
2016-09-18T13:12:56.420Z,105
2016-09-18T13:13:57.453Z,105
2016-09-18T13:14:56.424Z,115
2016-09-18T13:15:56.419Z,125
2016-09-18T13:16:56.426Z,140
2016-09-18T13:17:56.419Z,150
2016-09-18T13:18:56.436Z,170
2016-09-18T13:19:56.420Z,165
2016-09-18T13:20:56.750Z,150
2016-09-18T13:21:56.685Z,125
2016-09-18T13:22:56.440Z,105
2016-09-18T13:23:56.438Z,90
2016-09-18T13:24:56.777Z,85
2016-09-18T13:25:56.491Z,90
2016-09-18T13:26:56.496Z,95
2016-09-18T13:27:56.431Z,95
2016-09-18T13:28:56.445Z,95
2016-09-18T13:29:56.694Z,95
2016-09-18T13:30:56.450Z,95
2016-09-18T13:31:56.448Z,95
2016-09-18T13:32:56.449Z,90
2016-09-18T13:33:56.458Z,90
2016-09-18T13:34:56.452Z,100
2016-09-18T13:35:56.446Z,110
2016-09-18T13:36:56.462Z,120
2016-09-18T13:37:56.459Z,130
2016-09-18T13:38:56.455Z,120
2016-09-18T13:39:56.786Z,115
2016-09-18T13:40:56.459Z,115
2016-09-18T13:41:56.468Z,115
2016-09-18T13:42:56.463Z,115
2016-09-18T13:43:57.089Z,120
2016-09-18T13:44:56.456Z,120
2016-09-18T13:45:56.480Z,115
2016-09-18T13:46:56.457Z,110
2016-09-18T13:47:56.470Z,100
2016-09-18T13:48:56.469Z,90
2016-09-18T13:49:56.474Z,85
2016-09-18T13:50:56.499Z,80
2016-09-18T13:51:56.487Z,80
2016-09-18T13:52:56.475Z,85
2016-09-18T13:53:56.524Z,90
2016-09-18T13:54:56.498Z,95
2016-09-18T13:55:56.479Z,100
2016-09-18T13:56:56.490Z,105
2016-09-18T13:57:56.486Z,105
2016-09-18T13:58:56.501Z,105
2016-09-18T13:59:56.740Z,110
2016-09-18T14:00:56.883Z,120
2016-09-18T14:01:56.489Z,125
2016-09-18T14:02:56.498Z,120
2016-09-18T14:03:56.938Z,115
2016-09-18T14:04:56.536Z,110
2016-09-18T14:05:56.503Z,105
2016-09-18T14:06:56.506Z,95
2016-09-18T14:07:56.499Z,90
2016-09-18T14:08:56.498Z,85
2016-09-18T14:09:56.569Z,85
2016-09-18T14:10:56.511Z,90
2016-09-18T14:11:56.501Z,85
2016-09-18T14:12:56.502Z,80
2016-09-18T14:13:56.504Z,80
2016-09-18T14:14:56.509Z,75
2016-09-18T14:15:56.503Z,70
2016-09-18T14:16:56.510Z,70
2016-09-18T14:17:56.528Z,65
2016-09-18T14:18:56.527Z,65
2016-09-18T14:19:56.716Z,65
2016-09-18T14:20:56.547Z,65
2016-09-18T14:21:56.529Z,65